createdAt,value
2017-10-17T00:00:33.345Z,10.35
2017-10-17T00:03:02.486Z,14.32
2017-10-17T00:05:31.641Z,11.75
2017-10-17T00:08:00.794Z,9.85
2017-10-17T00:10:30.692Z,14.60
2017-10-17T00:12:59.904Z,11.57
2017-10-17T00:15:29.029Z,12.75
2017-10-17T00:17:58.525Z,10.02
2017-10-17T00:20:28.400Z,10.30
2017-10-17T00:22:57.493Z,11.12
2017-10-17T00:25:26.642Z,11.77
2017-10-17T00:27:56.042Z,10.68
2017-10-17T00:30:25.270Z,12.85
2017-10-17T00:32:56.340Z,11.32
2017-10-17T00:35:25.707Z,12.00
2017-10-17T00:37:58.177Z,10.52
2017-10-17T00:40:27.334Z,10.68
2017-10-17T00:42:59.165Z,12.10
2017-10-17T00:45:28.304Z,16.25
2017-10-17T00:47:57.638Z,10.48
2017-10-17T00:50:26.784Z,13.30
2017-10-17T00:52:56.635Z,11.38
2017-10-17T00:55:25.745Z,13.77
2017-10-17T00:57:54.878Z,10.35
2017-10-17T01:00:24.077Z,12.35
2017-10-17T01:02:53.405Z,10.90
2017-10-17T01:05:23.372Z,10.02
2017-10-17T01:07:52.497Z,11.35
2017-10-17T01:10:21.590Z,13.30
2017-10-17T01:12:50.694Z,11.27
2017-10-17T01:15:20.593Z,10.68
2017-10-17T01:17:50.189Z,11.90
2017-10-17T01:20:20.320Z,10.88
2017-10-17T01:22:49.458Z,10.50
2017-10-17T01:25:18.573Z,10.23
2017-10-17T01:27:50.090Z,10.30
2017-10-17T01:30:19.971Z,10.20
2017-10-17T01:32:49.113Z,10.77
2017-10-17T01:35:19.154Z,14.25
2017-10-17T01:37:48.347Z,15.48
2017-10-17T01:40:18.158Z,12.75
2017-10-17T01:42:47.270Z,10.38
2017-10-17T01:45:16.423Z,12.45
2017-10-17T01:47:45.641Z,13.73
2017-10-17T01:50:15.677Z,12.73
2017-10-17T01:52:44.810Z,13.55
2017-10-17T01:55:13.890Z,14.05
2017-10-17T01:57:43.093Z,13.82
2017-10-17T02:00:12.416Z,16.60
2017-10-17T02:02:42.328Z,17.33
2017-10-17T02:05:12.501Z,13.62
2017-10-17T02:07:41.606Z,13.82
2017-10-17T02:10:10.891Z,18.08
2017-10-17T02:12:40.038Z,15.93
2017-10-17T02:15:09.921Z,16.10
2017-10-17T02:17:39.117Z,15.77
2017-10-17T02:20:08.290Z,16.70
2017-10-17T02:22:37.450Z,15.68
2017-10-17T02:25:07.423Z,15.00
2017-10-17T02:27:36.563Z,13.88
2017-10-17T02:30:06.564Z,12.65
2017-10-17T02:32:35.658Z,14.55
2017-10-17T02:35:04.726Z,13.98
2017-10-17T02:37:33.861Z,12.48
2017-10-17T02:40:03.800Z,14.20
2017-10-17T02:42:33.304Z,11.93
2017-10-17T02:45:02.510Z,13.00
2017-10-17T02:47:32.506Z,13.10
2017-10-17T02:50:02.479Z,19.67
2017-10-17T02:52:31.646Z,15.18
2017-10-17T02:55:00.804Z,13.48
2017-10-17T02:57:30.722Z,13.55
2017-10-17T03:00:00.679Z,14.57
2017-10-17T03:02:29.877Z,12.27
2017-10-17T03:04:59.087Z,14.30
2017-10-17T03:07:28.947Z,11.65
2017-10-17T03:09:58.892Z,15.32
2017-10-17T03:12:28.105Z,12.52
2017-10-17T03:14:57.201Z,12.73
2017-10-17T03:17:26.376Z,14.25
2017-10-17T03:19:55.493Z,13.05
2017-10-17T03:22:24.629Z,13.60
2017-10-17T03:24:53.988Z,11.80
2017-10-17T03:27:23.209Z,10.60
2017-10-17T03:29:52.349Z,12.10
2017-10-17T03:32:22.232Z,14.48
2017-10-17T03:34:51.477Z,12.65
2017-10-17T03:37:20.706Z,13.60
2017-10-17T03:39:50.077Z,12.30
2017-10-17T03:42:19.358Z,12.35
2017-10-17T03:44:49.337Z,12.70
2017-10-17T03:47:18.534Z,11.60
2017-10-17T03:49:47.744Z,12.57
2017-10-17T03:52:16.875Z,12.40
2017-10-17T03:54:46.073Z,12.25
2017-10-17T03:57:15.574Z,11.95
2017-10-17T03:59:44.731Z,13.43
2017-10-17T04:02:13.880Z,12.50
2017-10-17T04:04:43.009Z,13.75
2017-10-17T04:07:12.690Z,11.23
2017-10-17T04:09:41.824Z,12.85
2017-10-17T04:12:11.007Z,12.98
2017-10-17T04:14:40.163Z,11.43
2017-10-17T04:17:09.473Z,11.30
2017-10-17T04:19:38.742Z,11.43
2017-10-17T04:22:07.901Z,13.80
2017-10-17T04:24:37.057Z,11.68
2017-10-17T04:27:06.450Z,11.32
2017-10-17T04:29:36.453Z,12.55
2017-10-17T04:32:05.639Z,14.35
2017-10-17T04:34:34.834Z,12.45
2017-10-17T04:37:05.342Z,14.40
2017-10-17T04:39:34.445Z,16.12
2017-10-17T04:42:04.798Z,13.07
2017-10-17T04:44:40.822Z,13.73
2017-10-17T04:47:10.041Z,11.07
2017-10-17T04:49:39.185Z,18.27
2017-10-17T04:52:08.454Z,12.73
2017-10-17T04:54:38.449Z,12.30
2017-10-17T04:57:10.513Z,13.88
2017-10-17T04:59:40.005Z,11.35
2017-10-17T05:02:09.249Z,11.35
2017-10-17T05:04:39.201Z,14.32
2017-10-17T05:07:08.473Z,12.15
2017-10-17T05:09:37.704Z,14.27
2017-10-17T05:12:06.886Z,12.27
2017-10-17T05:14:36.057Z,11.75
2017-10-17T05:17:07.800Z,18.37
2017-10-17T05:19:37.802Z,18.85
2017-10-17T05:22:11.379Z,12.50
2017-10-17T05:27:41.003Z,12.60
2017-10-17T05:30:10.223Z,15.80
2017-10-17T05:32:39.565Z,13.62
2017-10-17T05:35:08.783Z,13.10
2017-10-17T05:37:37.966Z,16.30
2017-10-17T05:40:07.225Z,13.90
2017-10-17T05:42:36.403Z,13.52
2017-10-17T05:45:05.574Z,12.73
2017-10-17T05:47:34.717Z,13.18
2017-10-17T05:50:03.924Z,13.82
2017-10-17T05:52:33.923Z,15.10
2017-10-17T05:55:03.659Z,13.30
2017-10-17T05:57:33.384Z,14.07
2017-10-17T06:00:02.454Z,13.13
2017-10-17T06:02:31.454Z,14.32
2017-10-17T06:05:01.243Z,16.42
2017-10-17T06:07:30.284Z,15.45
2017-10-17T06:09:59.418Z,17.67
2017-10-17T06:12:28.406Z,19.65
2017-10-17T06:14:58.214Z,17.12
2017-10-17T06:17:27.194Z,12.88
2017-10-17T06:19:56.199Z,14.60
2017-10-17T06:22:25.256Z,15.25
2017-10-17T06:24:55.107Z,15.82
2017-10-17T06:27:24.070Z,14.27
2017-10-17T06:29:53.069Z,15.00
2017-10-17T06:32:22.165Z,15.98
2017-10-17T06:34:51.179Z,15.25
2017-10-17T06:37:20.942Z,16.85
2017-10-17T06:39:50.694Z,15.45
2017-10-17T06:42:19.772Z,14.87
2017-10-17T06:44:48.858Z,13.77
2017-10-17T06:47:18.826Z,14.95
2017-10-17T06:49:48.918Z,13.40
2017-10-17T06:52:17.996Z,14.75
2017-10-17T06:54:46.997Z,15.13
2017-10-17T06:57:16.045Z,16.35
2017-10-17T06:59:45.105Z,15.88
2017-10-17T07:02:14.130Z,16.85
2017-10-17T07:04:43.161Z,15.35
2017-10-17T07:07:12.225Z,18.23
2017-10-17T07:09:41.262Z,15.70
2017-10-17T07:12:10.347Z,17.92
2017-10-17T07:14:39.326Z,16.87
2017-10-17T07:17:09.099Z,15.90
2017-10-17T07:19:38.126Z,16.60
2017-10-17T07:22:08.132Z,17.95
2017-10-17T07:24:38.038Z,17.12
2017-10-17T07:27:07.188Z,16.90
2017-10-17T07:29:36.351Z,19.25
2017-10-17T07:32:06.201Z,21.30
2017-10-17T07:34:36.991Z,14.95
2017-10-17T07:37:06.804Z,17.85
2017-10-17T07:39:35.898Z,16.83
2017-10-17T07:42:05.703Z,18.48
2017-10-17T07:44:35.483Z,17.75
2017-10-17T07:47:04.518Z,16.80
2017-10-17T07:49:34.332Z,15.93
2017-10-17T07:52:04.274Z,17.10
2017-10-17T07:54:33.318Z,15.50
2017-10-17T07:57:03.238Z,16.40
2017-10-17T07:59:32.912Z,16.30
2017-10-17T08:02:01.954Z,17.85
2017-10-17T08:04:31.791Z,16.42
2017-10-17T08:07:01.000Z,15.82
2017-10-17T08:09:30.180Z,20.62
2017-10-17T08:12:00.376Z,17.40
2017-10-17T08:14:30.206Z,15.80
2017-10-17T08:16:59.196Z,16.48
2017-10-17T08:19:29.010Z,16.17
2017-10-17T08:21:58.803Z,18.02
2017-10-17T08:24:27.863Z,17.90
2017-10-17T08:26:57.052Z,22.02
2017-10-17T08:29:26.166Z,16.42
2017-10-17T08:31:55.210Z,15.90
2017-10-17T08:34:24.213Z,15.93
2017-10-17T08:36:53.221Z,15.85
2017-10-17T08:39:25.258Z,18.62
2017-10-17T08:41:55.471Z,14.13
2017-10-17T08:44:25.316Z,16.67
2017-10-17T08:46:54.335Z,14.75
2017-10-17T08:49:23.418Z,14.70
2017-10-17T08:51:52.585Z,15.27
2017-10-17T08:54:22.783Z,18.10
2017-10-17T08:56:52.584Z,14.90
2017-10-17T08:59:22.316Z,18.73
2017-10-17T09:01:52.058Z,14.35
2017-10-17T09:04:21.064Z,15.65
2017-10-17T09:06:50.066Z,14.85
2017-10-17T09:09:19.077Z,19.62
2017-10-17T09:11:48.258Z,14.57
2017-10-17T09:14:18.169Z,20.20
2017-10-17T09:16:47.178Z,21.27
2017-10-17T09:19:16.183Z,13.25
2017-10-17T09:21:45.254Z,14.45
2017-10-17T09:24:14.257Z,14.40
2017-10-17T09:26:44.043Z,14.02
2017-10-17T09:29:13.101Z,14.60
2017-10-17T09:31:42.132Z,14.35
2017-10-17T09:34:11.280Z,13.80
2017-10-17T09:36:41.142Z,13.13
2017-10-17T09:39:11.199Z,14.73
2017-10-17T09:41:40.374Z,14.77
2017-10-17T09:44:10.285Z,17.67
2017-10-17T09:46:39.282Z,15.32
2017-10-17T09:49:08.282Z,15.82
2017-10-17T09:51:37.290Z,14.45
2017-10-17T09:54:07.158Z,14.23
2017-10-17T09:56:36.984Z,15.77
2017-10-17T09:59:06.046Z,19.15
2017-10-17T10:01:35.150Z,13.20
2017-10-17T10:04:04.276Z,14.20
2017-10-17T10:06:34.170Z,16.70
2017-10-17T10:09:03.183Z,14.55
2017-10-17T10:11:32.286Z,13.93
2017-10-17T10:14:02.058Z,16.50
2017-10-17T10:16:31.081Z,15.45
2017-10-17T10:19:00.257Z,14.50
2017-10-17T10:21:29.362Z,12.50
2017-10-17T10:23:58.497Z,16.40
2017-10-17T10:26:27.664Z,16.40
2017-10-17T10:28:56.654Z,12.97
2017-10-17T10:31:25.677Z,14.60
2017-10-17T10:33:54.694Z,15.53
2017-10-17T10:36:24.462Z,14.57
2017-10-17T10:38:54.346Z,14.23
2017-10-17T10:41:24.181Z,12.93
2017-10-17T10:43:54.057Z,13.10
2017-10-17T10:46:33.840Z,12.30
2017-10-17T10:49:02.862Z,15.63
2017-10-17T10:51:31.847Z,12.60
2017-10-17T10:54:15.398Z,13.13
2017-10-17T10:56:45.182Z,14.90
2017-10-17T10:59:14.237Z,12.50
2017-10-17T11:01:43.259Z,12.40
2017-10-17T11:04:12.704Z,12.83
2017-10-17T11:06:41.857Z,13.00
2017-10-17T11:09:10.973Z,13.27
2017-10-17T11:11:40.162Z,11.27
2017-10-17T11:14:10.129Z,12.77
2017-10-17T11:16:46.244Z,13.00
2017-10-17T11:19:15.358Z,12.23
2017-10-17T11:21:46.087Z,11.53
2017-10-17T11:24:15.928Z,14.73
2017-10-17T11:26:45.683Z,11.93
2017-10-17T11:29:15.450Z,12.87
2017-10-17T11:31:44.545Z,12.10
2017-10-17T11:34:19.849Z,11.43
2017-10-17T11:36:48.880Z,12.40
2017-10-17T11:39:22.154Z,11.10
2017-10-17T11:42:06.159Z,11.20
2017-10-17T11:44:39.609Z,13.23
2017-10-17T11:47:09.512Z,11.10
2017-10-17T11:49:39.455Z,11.20
2017-10-17T11:52:08.519Z,12.70
2017-10-17T11:54:38.373Z,12.83
2017-10-17T11:57:07.393Z,10.63
2017-10-17T11:59:41.961Z,17.50
2017-10-17T12:02:11.834Z,11.97
2017-10-17T12:04:41.670Z,13.43
2017-10-17T12:07:11.468Z,11.83
2017-10-17T12:09:40.669Z,12.10
2017-10-17T12:12:09.969Z,14.17
2017-10-17T12:14:39.224Z,12.37
2017-10-17T12:17:08.205Z,14.40
2017-10-17T12:19:37.993Z,12.40
2017-10-17T12:22:07.774Z,14.03
2017-10-17T12:24:38.424Z,12.33
2017-10-17T12:27:09.006Z,16.90
2017-10-17T12:29:38.063Z,13.33
2017-10-17T12:32:07.094Z,13.20
2017-10-17T12:34:36.199Z,15.70
2017-10-17T12:37:05.297Z,14.83
2017-10-17T12:39:34.484Z,11.83
2017-10-17T12:42:03.497Z,11.47
2017-10-17T12:44:32.519Z,15.53
2017-10-17T12:47:01.664Z,13.07
2017-10-17T12:49:30.802Z,13.40
2017-10-17T12:51:59.810Z,15.07
2017-10-17T12:54:28.871Z,12.83
2017-10-17T12:56:57.850Z,11.83
2017-10-17T12:59:26.931Z,11.60
2017-10-17T13:01:56.071Z,11.27
2017-10-17T13:04:25.265Z,12.37
2017-10-17T13:06:55.202Z,16.73
2017-10-17T13:09:25.026Z,14.33
2017-10-17T13:11:54.820Z,12.27
2017-10-17T13:14:25.457Z,12.60
2017-10-17T13:16:56.550Z,12.57
2017-10-17T13:19:25.816Z,20.83
2017-10-17T13:21:56.505Z,15.43
2017-10-17T13:24:25.642Z,13.33
2017-10-17T13:26:55.455Z,13.70
2017-10-17T13:29:25.256Z,11.40
2017-10-17T13:31:55.151Z,12.93
2017-10-17T13:34:24.291Z,11.77
2017-10-17T13:36:54.122Z,12.30
2017-10-17T13:39:23.180Z,13.10
2017-10-17T13:41:53.729Z,12.27
2017-10-17T13:44:22.776Z,14.57
2017-10-17T13:46:52.814Z,11.93
2017-10-17T13:49:24.565Z,12.93
2017-10-17T13:51:54.421Z,12.23
2017-10-17T13:54:23.591Z,12.00
2017-10-17T13:56:53.399Z,11.63
2017-10-17T13:59:23.318Z,12.60
2017-10-17T14:01:53.190Z,13.50
2017-10-17T14:04:22.259Z,12.30
2017-10-17T14:06:51.441Z,14.97
2017-10-17T14:09:20.598Z,12.37
2017-10-17T14:11:49.652Z,12.73
2017-10-17T14:14:18.784Z,11.57
2017-10-17T14:16:48.611Z,12.37
2017-10-17T14:19:18.628Z,13.27
2017-10-17T14:21:47.676Z,13.93
2017-10-17T14:24:18.184Z,12.80
2017-10-17T14:26:48.808Z,15.33
2017-10-17T14:29:18.655Z,18.93
2017-10-17T14:31:47.851Z,13.83
2017-10-17T14:34:16.892Z,13.30
2017-10-17T14:36:45.907Z,15.57
2017-10-17T14:39:14.883Z,16.60
2017-10-17T14:41:44.759Z,18.48
2017-10-17T14:44:14.807Z,13.40
2017-10-17T14:46:44.599Z,20.85
2017-10-17T14:49:13.676Z,14.48
2017-10-17T14:51:42.840Z,14.00
2017-10-17T14:54:12.782Z,20.60
2017-10-17T14:56:41.902Z,14.15
2017-10-17T14:59:10.999Z,20.17
2017-10-17T15:01:40.090Z,15.10
2017-10-17T15:04:09.261Z,15.48
2017-10-17T15:06:38.253Z,16.33
2017-10-17T15:09:07.271Z,22.87
2017-10-17T15:11:38.151Z,13.98
2017-10-17T15:14:07.943Z,13.98
2017-10-17T15:16:37.001Z,16.73
2017-10-17T15:19:06.070Z,19.50
2017-10-17T15:21:35.914Z,14.18
2017-10-17T15:24:04.940Z,14.57
2017-10-17T15:26:33.997Z,14.25
2017-10-17T15:29:04.239Z,18.50
2017-10-17T15:31:33.242Z,14.48
2017-10-17T15:34:02.557Z,27.58
2017-10-17T15:36:31.853Z,23.33
2017-10-17T15:39:01.697Z,16.92
2017-10-17T15:41:30.743Z,20.80
2017-10-17T15:43:59.925Z,21.27
2017-10-17T15:46:28.974Z,15.07
2017-10-17T15:48:58.113Z,13.57
2017-10-17T15:51:27.218Z,17.27
2017-10-17T15:53:56.286Z,18.87
2017-10-17T15:56:25.666Z,19.58
2017-10-17T15:58:55.648Z,19.80
2017-10-17T16:01:24.700Z,23.98
2017-10-17T16:03:54.523Z,20.42
2017-10-17T16:06:23.693Z,17.95
2017-10-17T16:08:53.544Z,17.95
2017-10-17T16:11:23.005Z,18.27
2017-10-17T16:13:52.194Z,28.90
2017-10-17T16:16:22.113Z,26.12
2017-10-17T16:18:51.174Z,16.62
2017-10-17T16:21:20.427Z,22.60
2017-10-17T16:23:50.337Z,22.77
2017-10-17T16:26:19.516Z,19.37
2017-10-17T16:28:48.556Z,31.85
2017-10-17T16:31:17.654Z,21.58
2017-10-17T16:33:46.742Z,15.43
2017-10-17T16:36:15.835Z,17.05
2017-10-17T16:38:45.638Z,23.60
2017-10-17T16:41:16.460Z,17.35
2017-10-17T16:43:45.523Z,18.15
2017-10-17T16:46:15.322Z,16.92
2017-10-17T16:48:46.720Z,16.45
2017-10-17T16:51:16.150Z,15.98
2017-10-17T16:53:46.018Z,16.45
2017-10-17T16:56:15.830Z,17.35
2017-10-17T16:58:45.642Z,18.42
2017-10-17T17:01:15.427Z,20.25
2017-10-17T17:03:45.548Z,18.48
2017-10-17T17:06:14.591Z,22.73
2017-10-17T17:08:43.599Z,25.92
2017-10-17T17:11:13.480Z,20.58
2017-10-17T17:13:42.510Z,19.20
2017-10-17T17:16:11.585Z,22.45
2017-10-17T17:18:40.641Z,19.98
2017-10-17T17:21:09.708Z,20.73
2017-10-17T17:23:39.845Z,22.27
2017-10-17T17:26:08.969Z,21.70
2017-10-17T17:28:38.765Z,25.08
2017-10-17T17:31:08.596Z,25.98
2017-10-17T17:33:38.372Z,20.33
2017-10-17T17:36:07.401Z,21.02
2017-10-17T17:38:36.433Z,26.58
2017-10-17T17:41:05.511Z,21.17
2017-10-17T17:43:34.598Z,20.45
2017-10-17T17:46:13.723Z,25.90
2017-10-17T17:48:42.896Z,22.98
2017-10-17T17:51:12.956Z,21.65
2017-10-17T17:53:42.858Z,25.92
2017-10-17T17:56:11.986Z,23.35
2017-10-17T17:58:41.036Z,21.02
2017-10-17T18:01:10.930Z,21.55
2017-10-17T18:03:40.845Z,21.52
2017-10-17T18:06:10.797Z,23.40
2017-10-17T18:08:39.870Z,22.98
2017-10-17T18:11:09.129Z,23.30
2017-10-17T18:13:38.302Z,24.35
2017-10-17T18:16:08.216Z,23.92
2017-10-17T18:18:38.011Z,22.00
2017-10-17T18:21:07.182Z,21.90
2017-10-17T18:23:37.076Z,41.30
2017-10-17T18:26:06.267Z,27.48
2017-10-17T18:28:36.126Z,31.12
2017-10-17T18:31:05.275Z,23.85
2017-10-17T18:33:34.413Z,25.50
2017-10-17T18:36:03.605Z,28.38
2017-10-17T18:38:33.586Z,27.90
2017-10-17T18:41:03.100Z,26.15
2017-10-17T18:43:32.356Z,26.02
2017-10-17T18:46:01.538Z,24.50
2017-10-17T18:48:31.803Z,24.05
2017-10-17T18:51:00.905Z,24.17
2017-10-17T18:53:31.538Z,30.45
2017-10-17T18:56:02.586Z,32.85
2017-10-17T18:58:32.508Z,29.67
2017-10-17T19:01:03.066Z,32.80
2017-10-17T19:03:32.230Z,33.55
2017-10-17T19:06:02.393Z,34.15
2017-10-17T19:08:32.336Z,27.67
2017-10-17T19:11:02.228Z,30.55
2017-10-17T19:13:31.591Z,28.55
2017-10-17T19:16:01.585Z,30.33
2017-10-17T19:18:31.204Z,32.58
2017-10-17T19:21:01.658Z,32.22
2017-10-17T19:23:30.757Z,30.30
2017-10-17T19:26:02.743Z,30.17
2017-10-17T19:28:31.944Z,36.17
2017-10-17T19:31:01.707Z,30.98
2017-10-17T19:33:32.098Z,38.45
2017-10-17T19:37:05.954Z,30.60
2017-10-17T19:39:35.599Z,35.75
2017-10-17T19:42:05.040Z,30.67
2017-10-17T19:44:36.476Z,39.40
2017-10-17T19:47:06.064Z,35.08
2017-10-17T19:49:35.285Z,37.25
2017-10-17T19:52:05.068Z,38.88
2017-10-17T19:54:34.501Z,35.95
2017-10-17T19:57:04.402Z,34.45
2017-10-17T19:59:35.836Z,37.88
2017-10-17T20:02:05.170Z,31.92
2017-10-17T20:04:34.283Z,31.65
2017-10-17T20:07:04.297Z,31.48
2017-10-17T20:09:33.548Z,33.97
2017-10-17T20:12:07.506Z,29.95
2017-10-17T20:14:36.591Z,32.10
2017-10-17T20:17:05.688Z,28.50
2017-10-17T20:19:34.892Z,30.83
2017-10-17T20:22:04.841Z,30.45
2017-10-17T20:24:35.184Z,34.47
2017-10-17T20:27:05.213Z,34.97
2017-10-17T20:29:35.181Z,32.40
2017-10-17T20:32:05.226Z,36.78
2017-10-17T20:34:34.472Z,39.17
2017-10-17T20:37:05.385Z,33.83
2017-10-17T20:39:34.445Z,34.38
2017-10-17T20:42:03.616Z,31.05
2017-10-17T20:44:33.387Z,31.25
2017-10-17T20:47:02.530Z,36.85
2017-10-17T20:49:32.384Z,33.13
2017-10-17T20:52:01.498Z,37.47
2017-10-17T20:54:30.515Z,32.92
2017-10-17T20:57:00.070Z,33.50
2017-10-17T20:59:29.081Z,40.97
2017-10-17T21:01:58.192Z,42.25
2017-10-17T21:04:27.203Z,35.20
2017-10-17T21:06:56.174Z,32.10
2017-10-17T21:09:25.993Z,39.38
2017-10-17T21:11:55.046Z,37.60
2017-10-17T21:14:24.109Z,36.05
2017-10-17T21:16:53.898Z,35.03
2017-10-17T21:19:23.049Z,39.95
2017-10-17T21:21:52.066Z,34.88
2017-10-17T21:24:21.183Z,36.35
2017-10-17T21:26:50.473Z,34.33
2017-10-17T21:29:20.343Z,39.95
2017-10-17T21:31:50.150Z,39.45
2017-10-17T21:34:19.995Z,42.33
2017-10-17T21:36:49.001Z,36.03
2017-10-17T21:39:18.036Z,37.80
2017-10-17T21:41:47.147Z,38.25
2017-10-17T21:44:16.976Z,40.38
2017-10-17T21:46:46.002Z,38.35
2017-10-17T21:49:14.986Z,36.95
2017-10-17T21:51:43.990Z,47.00
2017-10-17T21:54:13.077Z,37.83
2017-10-17T21:56:42.812Z,39.97
2017-10-17T21:59:11.861Z,49.50
2017-10-17T22:01:40.862Z,47.50
2017-10-17T22:04:09.848Z,48.45
2017-10-17T22:06:38.827Z,42.90
2017-10-17T22:09:07.887Z,41.40
2017-10-17T22:11:36.849Z,36.80
2017-10-17T22:14:06.578Z,43.15
2017-10-17T22:16:35.874Z,38.47
2017-10-17T22:19:04.845Z,35.17
2017-10-17T22:21:34.681Z,38.42
2017-10-17T22:24:03.856Z,49.10
2017-10-17T22:26:32.972Z,35.95
2017-10-17T22:29:02.344Z,35.75
2017-10-17T22:31:31.337Z,32.20
2017-10-17T22:34:01.192Z,34.00
2017-10-17T22:36:30.959Z,28.80
2017-10-17T22:39:00.764Z,31.40
2017-10-17T22:41:29.780Z,29.65
2017-10-17T22:43:58.874Z,33.78
2017-10-17T22:46:27.857Z,37.35
2017-10-17T22:48:57.596Z,33.42
2017-10-17T22:51:26.537Z,33.40
2017-10-17T22:53:55.569Z,35.42
2017-10-17T22:56:25.385Z,42.30
2017-10-17T22:58:54.381Z,44.80
2017-10-17T23:01:23.445Z,29.87
2017-10-17T23:03:52.443Z,44.90
2017-10-17T23:06:22.213Z,39.80
2017-10-17T23:08:51.990Z,37.03
2017-10-17T23:14:20.279Z,40.25
2017-10-17T23:16:58.084Z,38.22
2017-10-17T23:19:38.351Z,36.42
2017-10-17T23:23:26.657Z,28.38
2017-10-17T23:25:55.645Z,38.15
2017-10-17T23:28:24.660Z,34.60
2017-10-17T23:30:53.697Z,34.28
2017-10-17T23:33:22.629Z,27.75
2017-10-17T23:35:51.894Z,33.90
2017-10-17T23:38:21.632Z,30.00
2017-10-17T23:40:51.405Z,33.60
2017-10-17T23:43:20.365Z,37.10
2017-10-17T23:45:49.325Z,32.28
2017-10-17T23:48:19.062Z,40.85
2017-10-17T23:51:02.536Z,33.00
2017-10-17T23:53:31.523Z,31.17
2017-10-17T23:56:00.456Z,33.85
2017-10-17T23:58:29.429Z,48.25
